Flight Track Log - Related Links

Times and Time Zones

All times are in EDT time to prevent confusion due to time zone crossing. See the SKW5510 flight status page for this flight to view local times or setup timezone preferences in your user account.

Time Position Orientation Groundspeed Altitude Reporting Facility
EDT Latitude Longitude Course Direction KTS MPH feet Rate Location/Type
Wed 08:50:04 AM 36.6000 -121.8833 90° East 171 197 1,600  Level Northern Cal TRACON
Wed 08:50:58 AM 36.6500 -121.9000 345° North 209 241 3,200 2,000 Climbing Northern Cal TRACON
Wed 08:51:58 AM 36.6833 -121.8500 50° Northeast 228 262 5,400 1,947 Climbing Northern Cal TRACON
Wed 08:52:52 AM 36.7000 -121.7667 76° East 229 264 6,900 833 Climbing Northern Cal TRACON
Wed 08:53:00 AM 36.6776 -121.2032 84° East  Level FlightAware Approximate
Wed 08:53:46 AM 36.7000 -121.7333 90° East 283 326 6,900  Level Northern Cal TRACON
Wed 08:54:00 AM 36.6963 -121.0427 80° East  Level FlightAware Approximate
Wed 08:54:52 AM 36.7167 -121.5833 82° East 303 349 11,300  Level Northern Cal TRACON
Wed 08:55:00 AM 36.7000 -120.8809 90° East  Level FlightAware Approximate
Wed 08:55:52 AM 36.7333 -121.4500 81° East 335 386 12,900  Level Northern Cal TRACON
Wed 08:56:52 AM 36.7383 -121.3428 87° East 341 392 14,400 1,400 Climbing Oakland Center
Wed 08:57:52 AM 36.7508 -121.2169 83° East 360 414 15,700 1,289 Climbing Oakland Center
Wed 08:58:53 AM 36.7639 -121.0861 83° East 374 430 17,000 1,438 Climbing Oakland Center
Wed 08:59:53 AM 36.7775 -120.9531 83° East 382 440 18,600 1,600 Climbing Oakland Center
Wed 09:00:53 AM 36.7906 -120.8194 83° East 386 444 20,200 1,388 Climbing Oakland Center
Wed 09:01:54 AM 36.8025 -120.6872 84° East 387 445 21,400 1,140 Climbing Oakland Center
Wed 09:02:54 AM 36.8144 -120.5511 84° East 394 453 22,500 1,050 Climbing Oakland Center
Wed 09:03:54 AM 36.8272 -120.4264 83° East 398 458 23,500 992 Climbing Oakland Center
Wed 09:04:55 AM 36.8403 -120.2892 83° East 398 458 24,500 843 Climbing Oakland Center
Wed 09:05:55 AM 36.8739 -120.1453 74° East 408 470 25,200 700 Climbing Oakland Center
Wed 09:06:55 AM 36.9339 -120.0225 59° Northeast 415 478 25,900 744 Climbing Oakland Center
Wed 09:07:56 AM 36.9950 -119.8981 58° Northeast 420 483 26,700 793 Climbing Oakland Center
Wed 09:08:56 AM 37.0564 -119.7736 58° Northeast 421 484 27,500 750 Climbing Oakland Center
Wed 09:09:56 AM 37.1172 -119.6481 59° Northeast 422 486 28,200 645 Climbing Oakland Center
Wed 09:10:57 AM 37.1794 -119.5222 58° Northeast 426 490 28,800 545 Climbing Oakland Center
Wed 09:11:57 AM 37.2422 -119.3928 59° Northeast 435 501 29,300 496 Climbing Oakland Center
Wed 09:12:58 AM 37.3053 -119.2614 59° Northeast 439 505 29,800 496 Climbing Oakland Center
Wed 09:13:58 AM 37.3689 -119.1283 59° Northeast 441 507 30,300 496 Climbing Oakland Center
Wed 09:14:59 AM 37.4306 -118.9939 60° Northeast 442 509 30,800 496 Climbing Oakland Center
Wed 09:15:59 AM 37.4947 -118.8589 59° Northeast 448 516 31,300 496 Climbing Oakland Center
Wed 09:17:00 AM 37.5617 -118.7203 59° Northeast 450 518 31,800 545 Climbing Oakland Center
Wed 09:18:00 AM 37.6250 -118.5844 59° Northeast 449 517 32,400 545 Climbing Oakland Center
Wed 09:19:01 AM 37.6883 -118.4500 59° Northeast 445 512 32,900 298 Climbing Oakland Center
Wed 09:20:01 AM 37.7497 -118.3119 61° Northeast 449 517 33,000 50 Climbing Oakland Center
Wed 09:21:02 AM 37.8147 -118.1736 59° Northeast 454 522 33,000  Level Oakland Center
Wed 09:22:02 AM 37.8836 -118.0325 58° Northeast 467 537 33,000  Level Oakland Center
Wed 09:23:03 AM 37.9503 -117.8872 60° Northeast 473 544 33,000  Level Oakland Center
Wed 09:24:03 AM 38.0133 -117.7394 62° Northeast 475 547 33,000  Level Oakland Center
Wed 09:25:04 AM 38.0544 -117.5819 72° East 469 540 33,000  Level Oakland Center
Wed 09:26:04 AM 38.0967 -117.4250 71° East 471 542 33,000  Level Oakland Center
Wed 09:27:05 AM 38.1472 -117.2417 71° East 468 539 33,000  Level Oakland Center
Wed 09:28:06 AM 38.1894 -117.0817 71° East 475 547 33,000  Level Oakland Center
Wed 09:28:52 AM 38.2192 -116.9678 72° East 473 544 33,000  Level Salt Lake Center
Wed 09:29:53 AM 38.2617 -116.8067 71° East 477 549 33,000  Level Salt Lake Center
Wed 09:30:54 AM 38.3042 -116.6461 71° East 479 551 33,000  Level Salt Lake Center
Wed 09:32:09 AM 38.3553 -116.4508 71° East 483 556 33,000  Level Oakland Center
Wed 09:33:09 AM 38.3983 -116.2861 72° East 488 562 33,000  Level Oakland Center
Wed 09:34:10 AM 38.4397 -116.1214 72° East 487 560 33,000  Level Oakland Center
Wed 09:34:58 AM 38.4736 -115.9903 72° East 487 560 33,000  Level Salt Lake Center
Wed 09:35:59 AM 38.5153 -115.8256 72° East 488 562 33,000  Level Salt Lake Center
Wed 09:37:01 AM 38.5575 -115.6589 72° East 492 566 33,000  Level Salt Lake Center
Wed 09:38:02 AM 38.6000 -115.4919 72° East 495 570 33,000  Level Salt Lake Center
Wed 09:39:03 AM 38.6475 -115.2992 72° East 494 568 33,000  Level Salt Lake Center
Wed 09:40:04 AM 38.6881 -115.1319 73° East 494 568 33,000  Level Salt Lake Center
Wed 09:41:05 AM 38.7294 -114.9639 72° East 494 568 33,000  Level Salt Lake Center
Wed 09:42:07 AM 38.7706 -114.7953 73° East 495 570 33,000  Level Salt Lake Center
Wed 09:43:07 AM 38.8111 -114.6278 73° East 495 570 33,000  Level Salt Lake Center
Wed 09:44:09 AM 38.8522 -114.4592 73° East 495 570 33,000  Level Salt Lake Center
Wed 09:45:10 AM 38.8936 -114.2889 73° East 498 573 33,000  Level Salt Lake Center
Wed 09:46:11 AM 38.9342 -114.1197 73° East 497 572 33,000  Level Salt Lake Center
Wed 09:47:12 AM 38.9744 -113.9489 73° East 499 574 33,000  Level Salt Lake Center
Wed 09:48:14 AM 39.0225 -113.7431 73° East 501 577 33,000  Level Salt Lake Center
Wed 09:49:15 AM 39.0625 -113.5708 73° East 502 578 33,000  Level Salt Lake Center
Wed 09:50:16 AM 39.1017 -113.3972 74° East 504 580 33,000  Level Salt Lake Center
Wed 09:51:17 AM 39.1414 -113.2239 73° East 504 580 33,000  Level Salt Lake Center
Wed 09:52:19 AM 39.1811 -113.0481 74° East 508 585 33,000  Level Salt Lake Center
Wed 09:53:20 AM 39.2211 -112.8758 73° East 506 582 33,000  Level Salt Lake Center
Wed 09:54:21 AM 39.2600 -112.6981 74° East 512 589 33,000  Level Salt Lake Center
Wed 09:55:22 AM 39.2983 -112.5289 74° East 514 592 33,000  Level Salt Lake Center
Wed 09:56:23 AM 39.3397 -112.3144 76° East 516 594 33,000  Level Salt Lake Center
Wed 09:57:25 AM 39.3719 -112.1336 77° East 518 596 33,000  Level Salt Lake Center
Wed 09:58:26 AM 39.4069 -111.9539 76° East 519 597 33,000  Level Salt Lake Center
Wed 09:59:27 AM 39.4389 -111.7728 77° East 519 597 33,000  Level Salt Lake Center
Wed 10:00:28 AM 39.4725 -111.5903 77° East 524 603 33,000  Level Salt Lake Center
Wed 10:01:30 AM 39.5047 -111.4081 77° East 523 602 33,000  Level Salt Lake Center
Wed 10:02:31 AM 39.5406 -111.2014 77° East 526 605 33,000  Level Salt Lake Center
Wed 10:03:32 AM 39.5719 -111.0247 77° East 526 605 33,000  Level Salt Lake Center
Wed 10:04:34 AM 39.6031 -110.8456 77° East 530 610 33,000  Level Salt Lake Center
Wed 10:05:35 AM 39.6372 -110.6375 78° East 529 609 33,000  Level Salt Lake Center
Wed 10:06:36 AM 39.6692 -110.4606 77° East 527 606 33,000  Level Salt Lake Center
Wed 10:07:38 AM 39.7036 -110.2539 78° East 525 604 33,000  Level Salt Lake Center
Wed 10:08:39 AM 39.7336 -110.0767 78° East 524 603 33,000  Level Salt Lake Center
Wed 10:09:40 AM 39.7619 -109.9014 78° East 520 598 33,000  Level Salt Lake Center
Wed 10:10:42 AM 39.7947 -109.6981 78° East 515 593 33,000  Level Salt Lake Center
Wed 10:11:43 AM 39.8225 -109.5219 78° East 519 597 33,000  Level Salt Lake Center
Wed 10:12:44 AM 39.8553 -109.3175 78° East 516 594 33,000  Level Salt Lake Center
Wed 10:13:46 AM 39.8833 -109.1422 78° East 515 593 33,000  Level Salt Lake Center
Wed 10:14:47 AM 39.9114 -108.9647 78° East 517 595 33,000  Level Salt Lake Center
Wed 10:15:49 AM 39.9439 -108.7581 78° East 516 594 33,000  Level Salt Lake Center
Wed 10:16:50 AM 39.9706 -108.5814 79° East 515 593 33,000  Level Salt Lake Center
Wed 10:17:05 AM 39.9744 -108.5500 81° East 516 594 33,000  Level Denver Center
Wed 10:18:06 AM 40.0047 -108.3442 79° East 516 594 33,000  Level Denver Center
Wed 10:19:08 AM 40.0314 -108.1694 79° East 513 590 33,000  Level Denver Center
Wed 10:20:10 AM 40.0622 -107.9644 79° East 514 592 33,000  Level Denver Center
Wed 10:21:11 AM 40.0936 -107.7928 77° East 508 585 33,000  Level Denver Center
Wed 10:22:13 AM 40.1283 -107.6214 75° East 509 586 33,000  Level Denver Center
Wed 10:23:15 AM 40.1556 -107.4144 80° East 516 594 33,000  Level Denver Center
Wed 10:24:16 AM 40.1747 -107.2367 82° East 515 593 33,000  Level Denver Center
Wed 10:25:18 AM 40.1978 -107.0283 82° East 518 596 33,000  Level Denver Center
Wed 10:26:20 AM 40.2186 -106.8392 82° East 515 593 33,000 -293 Level Denver Center
Wed 10:27:21 AM 40.2386 -106.6528 82° East 514 592 32,400 -1,610 Descending Denver Center
Wed 10:28:23 AM 40.2583 -106.4597 82° East 528 608 29,700 -2,516 Descending Denver Center
Wed 10:29:25 AM 40.2764 -106.2708 83° East 544 626 27,200 -2,323 Descending Denver Center
Wed 10:30:27 AM 40.2944 -106.0825 83° East 499 574 24,900 -2,323 Descending Denver Center
Wed 10:31:29 AM 40.3114 -105.9117 83° East 471 542 22,400 -2,683 Descending Denver Center
Wed 10:32:30 AM 40.3286 -105.7261 83° East 437 503 19,400 -2,098 Descending Denver Center
Wed 10:33:32 AM 40.3439 -105.5731 82° East 421 484 18,100 -968 Descending Denver Center
Wed 10:34:34 AM 40.3539 -105.4322 85° East 386 444 17,400 -871 Descending Denver Center
Wed 10:35:36 AM 40.3386 -105.3086 99° East 348 400 16,300 -1,258 Descending Denver Center
Wed 10:36:38 AM 40.3219 -105.1875 100° East 340 391 14,800 -1,306 Descending Denver Center
Wed 10:37:40 AM 40.3050 -105.0600 100° East 330 380 13,600 -871 Descending Denver Center
Wed 10:38:42 AM 40.2889 -104.9547 101° East 301 346 13,000 -774 Descending Denver Center
Wed 10:39:44 AM 40.2403 -104.8694 127° Southeast 272 313 12,000 -968 Descending Denver Center
Wed 10:40:46 AM 40.1878 -104.8008 135° Southeast 268 308 11,000 -919 Descending Denver Center
Wed 10:41:48 AM 40.1197 -104.7556 153° Southeast 256 295 10,100 -871 Descending Denver Center
Wed 10:42:50 AM 40.0633 -104.7172 153° Southeast 228 262 9,200 -1,065 Descending Denver Center
Wed 10:43:52 AM 40.0108 -104.6953 162° South 202 232 7,900 -1,258 Descending Denver Center

Login

Don't have an account? Register now (free) for customized features, flight alerts, and more!